sensor_id;sensor_type;location;lat;lon;timestamp;pressure;altitude;pressure_sealevel;temperature;humidity
59240;BME280;45010;53.640;10.578;2023-10-09T00:01:26;101454.91;;;27.37;36.23
59240;BME280;45010;53.640;10.578;2023-10-09T00:04:27;101460.25;;;27.37;36.51
59240;BME280;45010;53.640;10.578;2023-10-09T00:07:27;101466.53;;;27.31;36.27
59240;BME280;45010;53.640;10.578;2023-10-09T00:10:30;101461.91;;;27.38;36.29
59240;BME280;45010;53.640;10.578;2023-10-09T00:13:46;101427.56;;;27.23;36.43
59240;BME280;45010;53.640;10.578;2023-10-09T00:16:52;101459.81;;;27.40;36.54
59240;BME280;45010;53.640;10.578;2023-10-09T00:20:17;101452.34;;;27.42;36.51
59240;BME280;45010;53.640;10.578;2023-10-09T00:23:19;101450.84;;;27.46;36.12
59240;BME280;45010;53.640;10.578;2023-10-09T00:26:20;101423.81;;;27.48;36.25
59240;BME280;45010;53.640;10.578;2023-10-09T00:29:21;101399.13;;;27.46;36.00
59240;BME280;45010;53.640;10.578;2023-10-09T00:32:27;101389.69;;;27.43;36.13
59240;BME280;45010;53.640;10.578;2023-10-09T00:35:36;101383.19;;;27.39;36.16
59240;BME280;45010;53.640;10.578;2023-10-09T00:38:37;101373.75;;;27.36;35.73
59240;BME280;45010;53.640;10.578;2023-10-09T00:41:44;101364.78;;;27.31;36.14
59240;BME280;45010;53.640;10.578;2023-10-09T00:44:45;101364.19;;;27.29;35.92
59240;BME280;45010;53.640;10.578;2023-10-09T00:47:48;101356.66;;;27.25;36.21
59240;BME280;45010;53.640;10.578;2023-10-09T00:50:49;101348.25;;;27.22;36.33
59240;BME280;45010;53.640;10.578;2023-10-09T00:53:55;101320.91;;;27.08;36.05
59240;BME280;45010;53.640;10.578;2023-10-09T00:56:58;101335.44;;;27.12;36.03
59240;BME280;45010;53.640;10.578;2023-10-09T01:00:07;101329.97;;;27.07;36.09
59240;BME280;45010;53.640;10.578;2023-10-09T01:03:24;101320.81;;;27.03;36.18
59240;BME280;45010;53.640;10.578;2023-10-09T01:06:25;101311.81;;;26.97;36.57
59240;BME280;45010;53.640;10.578;2023-10-09T01:09:28;101316.84;;;26.93;36.36
59240;BME280;45010;53.640;10.578;2023-10-09T01:12:28;101315.63;;;26.89;36.33
59240;BME280;45010;53.640;10.578;2023-10-09T01:15:29;101309.13;;;26.85;36.39
59240;BME280;45010;53.640;10.578;2023-10-09T01:18:44;101294.22;;;26.65;36.57
59240;BME280;45010;53.640;10.578;2023-10-09T01:21:47;101303.53;;;26.75;36.64
59240;BME280;45010;53.640;10.578;2023-10-09T01:24:48;101297.00;;;26.70;36.92
59240;BME280;45010;53.640;10.578;2023-10-09T01:27:50;101281.44;;;26.67;37.09
59240;BME280;45010;53.640;10.578;2023-10-09T01:30:52;101278.63;;;26.62;36.83
59240;BME280;45010;53.640;10.578;2023-10-09T01:33:53;101277.44;;;26.58;36.82
59240;BME280;45010;53.640;10.578;2023-10-09T01:36:55;101282.22;;;26.56;37.21
59240;BME280;45010;53.640;10.578;2023-10-09T01:39:57;101270.22;;;26.46;37.05
59240;BME280;45010;53.640;10.578;2023-10-09T01:43:19;101261.97;;;26.48;37.04
59240;BME280;45010;53.640;10.578;2023-10-09T01:46:21;101277.69;;;26.44;37.33
59240;BME280;45010;53.640;10.578;2023-10-09T01:49:22;101270.13;;;26.41;37.53
59240;BME280;45010;53.640;10.578;2023-10-09T01:52:29;101276.97;;;26.37;37.08
59240;BME280;45010;53.640;10.578;2023-10-09T01:55:30;101273.34;;;26.31;37.12
59240;BME280;45010;53.640;10.578;2023-10-09T01:58:33;101265.56;;;26.30;37.49
59240;BME280;45010;53.640;10.578;2023-10-09T02:01:34;101254.53;;;26.26;37.49
59240;BME280;45010;53.640;10.578;2023-10-09T02:04:34;101248.78;;;26.23;37.67
59240;BME280;45010;53.640;10.578;2023-10-09T02:07:37;101239.38;;;26.20;37.61
59240;BME280;45010;53.640;10.578;2023-10-09T02:10:41;101245.38;;;26.15;37.71
59240;BME280;45010;53.640;10.578;2023-10-09T02:13:47;101251.19;;;26.12;37.64
59240;BME280;45010;53.640;10.578;2023-10-09T02:16:53;101253.53;;;26.09;37.61
59240;BME280;45010;53.640;10.578;2023-10-09T02:20:03;101253.97;;;26.05;38.08
59240;BME280;45010;53.640;10.578;2023-10-09T02:23:17;101270.00;;;26.05;37.40
59240;BME280;45010;53.640;10.578;2023-10-09T02:26:21;101256.28;;;26.02;37.75
59240;BME280;45010;53.640;10.578;2023-10-09T02:29:40;101232.69;;;25.99;37.90
59240;BME280;45010;53.640;10.578;2023-10-09T02:32:42;101222.91;;;25.92;37.58
59240;BME280;45010;53.640;10.578;2023-10-09T02:35:43;101198.63;;;25.94;37.81
59240;BME280;45010;53.640;10.578;2023-10-09T02:38:44;101205.22;;;25.91;38.28
59240;BME280;45010;53.640;10.578;2023-10-09T02:41:44;101180.59;;;25.89;38.01
59240;BME280;45010;53.640;10.578;2023-10-09T02:44:50;101186.38;;;25.86;38.03
59240;BME280;45010;53.640;10.578;2023-10-09T02:47:51;101183.97;;;25.85;37.90
59240;BME280;45010;53.640;10.578;2023-10-09T02:50:51;101198.59;;;25.82;38.10
59240;BME280;45010;53.640;10.578;2023-10-09T02:53:56;101197.63;;;25.76;38.26
59240;BME280;45010;53.640;10.578;2023-10-09T02:56:58;101213.44;;;25.78;38.17
59240;BME280;45010;53.640;10.578;2023-10-09T03:00:07;101204.84;;;25.76;38.09
59240;BME280;45010;53.640;10.578;2023-10-09T03:03:18;101182.88;;;25.74;38.02
59240;BME280;45010;53.640;10.578;2023-10-09T03:06:21;101172.66;;;25.71;38.11
59240;BME280;45010;53.640;10.578;2023-10-09T03:09:26;101170.22;;;25.69;38.18
59240;BME280;45010;53.640;10.578;2023-10-09T03:12:27;101157.97;;;25.61;38.33
59240;BME280;45010;53.640;10.578;2023-10-09T03:15:28;101159.16;;;25.65;38.47
59240;BME280;45010;53.640;10.578;2023-10-09T03:18:31;101162.06;;;25.64;38.43
59240;BME280;45010;53.640;10.578;2023-10-09T03:21:31;101157.75;;;25.63;38.39
59240;BME280;45010;53.640;10.578;2023-10-09T03:24:32;101154.72;;;25.59;38.63
59240;BME280;45010;53.640;10.578;2023-10-09T03:27:32;101140.81;;;25.57;38.40
59240;BME280;45010;53.640;10.578;2023-10-09T03:30:34;101130.41;;;25.49;38.63
59240;BME280;45010;53.640;10.578;2023-10-09T03:33:34;101135.91;;;25.54;38.58
59240;BME280;45010;53.640;10.578;2023-10-09T03:36:36;101128.09;;;25.52;38.68
59240;BME280;45010;53.640;10.578;2023-10-09T03:39:39;101118.66;;;25.50;38.50
59240;BME280;45010;53.640;10.578;2023-10-09T03:42:42;101122.38;;;25.49;38.60
59240;BME280;45010;53.640;10.578;2023-10-09T03:45:43;101131.44;;;25.48;38.76
59240;BME280;45010;53.640;10.578;2023-10-09T03:48:52;101133.53;;;25.46;38.72
59240;BME280;45010;53.640;10.578;2023-10-09T03:51:56;101131.91;;;25.45;39.42
59240;BME280;45010;53.640;10.578;2023-10-09T03:54:56;101123.28;;;25.43;38.95
59240;BME280;45010;53.640;10.578;2023-10-09T03:57:56;101116.34;;;25.42;38.93
59240;BME280;45010;53.640;10.578;2023-10-09T04:00:59;101123.75;;;25.39;38.93
59240;BME280;45010;53.640;10.578;2023-10-09T04:04:00;101129.09;;;25.39;39.12
59240;BME280;45010;53.640;10.578;2023-10-09T04:07:01;101120.50;;;25.37;38.86
59240;BME280;45010;53.640;10.578;2023-10-09T04:10:01;101111.91;;;25.35;38.79
59240;BME280;45010;53.640;10.578;2023-10-09T04:13:24;101104.56;;;25.31;38.92
59240;BME280;45010;53.640;10.578;2023-10-09T04:16:33;101097.84;;;25.28;38.77
59240;BME280;45010;53.640;10.578;2023-10-09T04:19:33;101095.53;;;25.32;38.91
59240;BME280;45010;53.640;10.578;2023-10-09T04:22:48;101109.09;;;25.30;38.97
59240;BME280;45010;53.640;10.578;2023-10-09T04:25:51;101109.09;;;25.30;39.20
59240;BME280;45010;53.640;10.578;2023-10-09T04:28:52;101092.78;;;25.20;38.82
59240;BME280;45010;53.640;10.578;2023-10-09T04:31:57;101089.09;;;25.21;38.90
59240;BME280;45010;53.640;10.578;2023-10-09T04:35:01;101081.25;;;25.26;39.22
59240;BME280;45010;53.640;10.578;2023-10-09T04:38:19;101072.63;;;25.24;39.23
59240;BME280;45010;53.640;10.578;2023-10-09T04:41:19;101071.00;;;25.23;39.29
59240;BME280;45010;53.640;10.578;2023-10-09T04:44:28;101069.38;;;25.22;39.16
59240;BME280;45010;53.640;10.578;2023-10-09T04:47:36;101066.56;;;25.17;39.22
59240;BME280;45010;53.640;10.578;2023-10-09T04:50:37;100999.31;;;24.77;39.31
59240;BME280;45010;53.640;10.578;2023-10-09T04:53:57;101065.09;;;25.21;38.90
59240;BME280;45010;53.640;10.578;2023-10-09T04:57:12;101065.31;;;25.19;39.82
59240;BME280;45010;53.640;10.578;2023-10-09T05:00:18;101060.19;;;25.18;39.20
59240;BME280;45010;53.640;10.578;2023-10-09T05:03:25;101051.38;;;25.17;39.34
59240;BME280;45010;53.640;10.578;2023-10-09T05:06:29;101052.66;;;25.15;39.46
59240;BME280;45010;53.640;10.578;2023-10-09T05:09:55;101060.66;;;25.15;39.47
59240;BME280;45010;53.640;10.578;2023-10-09T05:12:55;101063.31;;;25.15;39.22
59240;BME280;45010;53.640;10.578;2023-10-09T05:15:58;101072.34;;;25.14;39.44
59240;BME280;45010;53.640;10.578;2023-10-09T05:19:00;101060.06;;;25.12;39.29
59240;BME280;45010;53.640;10.578;2023-10-09T05:22:03;101059.25;;;25.12;38.87
59240;BME280;45010;53.640;10.578;2023-10-09T05:25:07;101040.78;;;25.10;40.03
59240;BME280;45010;53.640;10.578;2023-10-09T05:28:16;101030.13;;;25.10;39.49
59240;BME280;45010;53.640;10.578;2023-10-09T05:31:25;101022.31;;;25.09;39.44
59240;BME280;45010;53.640;10.578;2023-10-09T05:34:45;101010.84;;;25.08;39.40
59240;BME280;45010;53.640;10.578;2023-10-09T05:38:00;101018.03;;;25.08;39.29
59240;BME280;45010;53.640;10.578;2023-10-09T05:41:15;101009.22;;;25.07;39.65
59240;BME280;45010;53.640;10.578;2023-10-09T05:44:33;101008.63;;;25.05;39.82
59240;BME280;45010;53.640;10.578;2023-10-09T05:47:53;101009.69;;;25.04;39.61
59240;BME280;45010;53.640;10.578;2023-10-09T05:50:54;101011.53;;;25.04;39.63
59240;BME280;45010;53.640;10.578;2023-10-09T05:54:09;101008.06;;;25.03;39.59
59240;BME280;45010;53.640;10.578;2023-10-09T05:57:23;101002.72;;;25.03;39.57
59240;BME280;45010;53.640;10.578;2023-10-09T06:00:52;100997.38;;;25.03;39.56
59240;BME280;45010;53.640;10.578;2023-10-09T06:04:25;101006.44;;;25.02;39.67
59240;BME280;45010;53.640;10.578;2023-10-09T06:07:54;101015.69;;;25.00;39.55
59240;BME280;45010;53.640;10.578;2023-10-09T06:11:08;101012.69;;;24.96;39.51
59240;BME280;45010;53.640;10.578;2023-10-09T06:14:27;101026.38;;;25.00;39.63
59240;BME280;45010;53.640;10.578;2023-10-09T06:17:30;101029.84;;;25.00;39.37
59240;BME280;45010;53.640;10.578;2023-10-09T06:20:43;101019.16;;;25.00;39.19
59240;BME280;45010;53.640;10.578;2023-10-09T06:24:02;101014.88;;;24.99;39.63
59240;BME280;45010;53.640;10.578;2023-10-09T06:27:12;101004.06;;;24.94;39.59
59240;BME280;45010;53.640;10.578;2023-10-09T06:30:13;101005.31;;;24.91;39.82
59240;BME280;45010;53.640;10.578;2023-10-09T06:33:19;101018.00;;;24.96;39.70
59240;BME280;45010;53.640;10.578;2023-10-09T06:36:19;101035.66;;;24.97;39.72
59240;BME280;45010;53.640;10.578;2023-10-09T06:39:19;101045.72;;;24.95;39.74
59240;BME280;45010;53.640;10.578;2023-10-09T06:42:38;101049.41;;;24.94;39.68
59240;BME280;45010;53.640;10.578;2023-10-09T06:45:39;101025.06;;;24.90;39.81
59240;BME280;45010;53.640;10.578;2023-10-09T06:48:45;101009.03;;;24.90;39.60
59240;BME280;45010;53.640;10.578;2023-10-09T06:51:46;101030.75;;;24.94;39.70
59240;BME280;45010;53.640;10.578;2023-10-09T06:54:47;101020.06;;;24.94;39.67
59240;BME280;45010;53.640;10.578;2023-10-09T06:57:50;101026.44;;;24.93;39.12
59240;BME280;45010;53.640;10.578;2023-10-09T07:00:55;101029.13;;;24.93;39.71
59240;BME280;45010;53.640;10.578;2023-10-09T07:03:58;101015.63;;;24.88;39.86
59240;BME280;45010;53.640;10.578;2023-10-09T07:07:18;101017.63;;;24.92;39.75
59240;BME280;45010;53.640;10.578;2023-10-09T07:10:21;101022.16;;;24.92;39.54
59240;BME280;45010;53.640;10.578;2023-10-09T07:13:30;101000.09;;;24.84;39.55
59240;BME280;45010;53.640;10.578;2023-10-09T07:16:37;100997.53;;;24.90;39.73
59240;BME280;45010;53.640;10.578;2023-10-09T07:19:57;101005.31;;;24.91;39.76
59240;BME280;45010;53.640;10.578;2023-10-09T07:23:35;100990.59;;;24.89;40.42
59240;BME280;45010;53.640;10.578;2023-10-09T07:26:35;100993.94;;;24.84;40.45
59240;BME280;45010;53.640;10.578;2023-10-09T07:29:47;100986.47;;;24.74;40.65
59240;BME280;45010;53.640;10.578;2023-10-09T07:32:50;101004.22;;;24.80;40.89
59240;BME280;45010;53.640;10.578;2023-10-09T07:35:52;100993.56;;;24.80;40.97
59240;BME280;45010;53.640;10.578;2023-10-09T07:38:53;100987.78;;;24.83;41.00
59240;BME280;45010;53.640;10.578;2023-10-09T07:41:55;100990.59;;;24.89;40.92
59240;BME280;45010;53.640;10.578;2023-10-09T07:44:56;100998.72;;;24.94;40.92
59240;BME280;45010;53.640;10.578;2023-10-09T07:47:58;101003.63;;;24.97;41.00
59240;BME280;45010;53.640;10.578;2023-10-09T07:51:11;101001.91;;;25.03;40.72
59240;BME280;45010;53.640;10.578;2023-10-09T07:54:12;101010.25;;;25.06;40.77
59240;BME280;45010;53.640;10.578;2023-10-09T07:57:16;101015.72;;;25.11;40.81
59240;BME280;45010;53.640;10.578;2023-10-09T08:00:17;101029.22;;;25.17;40.79
59240;BME280;45010;53.640;10.578;2023-10-09T08:03:36;101007.84;;;25.17;40.62
59240;BME280;45010;53.640;10.578;2023-10-09T08:06:37;101017.19;;;25.26;40.28
59240;BME280;45010;53.640;10.578;2023-10-09T08:09:38;101006.50;;;25.26;40.46
59240;BME280;45010;53.640;10.578;2023-10-09T08:12:47;101008.47;;;25.31;40.46
59240;BME280;45010;53.640;10.578;2023-10-09T08:15:55;101014.75;;;25.36;40.15
59240;BME280;45010;53.640;10.578;2023-10-09T08:18:56;100913.19;;;24.77;39.87
59240;BME280;45010;53.640;10.578;2023-10-09T08:21:57;101022.53;;;25.50;39.91
59240;BME280;45010;53.640;10.578;2023-10-09T08:25:20;101020.84;;;25.56;39.71
59240;BME280;45010;53.640;10.578;2023-10-09T08:28:27;101006.66;;;25.55;39.47
59240;BME280;45010;53.640;10.578;2023-10-09T08:31:39;101020.28;;;25.65;39.16
59240;BME280;45010;53.640;10.578;2023-10-09T08:34:45;101024.00;;;25.64;39.58
59240;BME280;45010;53.640;10.578;2023-10-09T08:37:54;101020.97;;;25.73;39.24
59240;BME280;45010;53.640;10.578;2023-10-09T08:40:54;101025.03;;;25.75;39.17
59240;BME280;45010;53.640;10.578;2023-10-09T08:43:58;101029.59;;;25.75;38.92
59240;BME280;45010;53.640;10.578;2023-10-09T08:46:59;101018.75;;;25.82;38.91
59240;BME280;45010;53.640;10.578;2023-10-09T08:50:00;101020.38;;;25.83;38.91
59240;BME280;45010;53.640;10.578;2023-10-09T08:53:01;101028.19;;;25.84;38.79
59240;BME280;45010;53.640;10.578;2023-10-09T08:56:05;101020.72;;;25.86;39.14
59240;BME280;45010;53.640;10.578;2023-10-09T08:59:05;101020.28;;;25.89;39.01
59240;BME280;45010;53.640;10.578;2023-10-09T09:02:05;101017.38;;;25.91;38.96
59240;BME280;45010;53.640;10.578;2023-10-09T09:05:26;101006.09;;;25.89;38.79
59240;BME280;45010;53.640;10.578;2023-10-09T09:08:32;101004.81;;;25.91;38.68
59240;BME280;45010;53.640;10.578;2023-10-09T09:11:41;101001.81;;;26.00;38.59
59240;BME280;45010;53.640;10.578;2023-10-09T09:14:48;101000.28;;;26.04;38.53
59240;BME280;45010;53.640;10.578;2023-10-09T09:17:50;101001.44;;;26.08;38.45
59240;BME280;45010;53.640;10.578;2023-10-09T09:20:51;101000.97;;;26.11;38.58
59240;BME280;45010;53.640;10.578;2023-10-09T09:23:59;100997.72;;;26.09;38.46
59240;BME280;45010;53.640;10.578;2023-10-09T09:27:04;101003.75;;;26.16;38.10
59240;BME280;45010;53.640;10.578;2023-10-09T09:30:22;101001.66;;;26.18;38.02
59240;BME280;45010;53.640;10.578;2023-10-09T09:33:25;101002.81;;;26.23;38.25
59240;BME280;45010;53.640;10.578;2023-10-09T09:36:53;101003.44;;;26.25;38.18
59240;BME280;45010;53.640;10.578;2023-10-09T09:39:58;101001.19;;;26.22;38.48
59240;BME280;45010;53.640;10.578;2023-10-09T09:43:01;100994.81;;;26.23;38.05
59240;BME280;45010;53.640;10.578;2023-10-09T09:46:07;100997.38;;;26.29;38.37
59240;BME280;45010;53.640;10.578;2023-10-09T09:49:08;100989.13;;;26.31;37.94
59240;BME280;45010;53.640;10.578;2023-10-09T09:52:16;100981.66;;;26.33;37.64
59240;BME280;45010;53.640;10.578;2023-10-09T09:55:18;100976.78;;;26.30;38.23
59240;BME280;45010;53.640;10.578;2023-10-09T09:58:23;100977.47;;;26.37;37.96
59240;BME280;45010;53.640;10.578;2023-10-09T10:01:32;100966.09;;;26.30;38.08
59240;BME280;45010;53.640;10.578;2023-10-09T10:04:37;100963.75;;;26.34;37.80
59240;BME280;45010;53.640;10.578;2023-10-09T10:07:39;100967.44;;;26.44;37.68
59240;BME280;45010;53.640;10.578;2023-10-09T10:10:49;100970.69;;;26.46;37.92
59240;BME280;45010;53.640;10.578;2023-10-09T10:13:55;100966.97;;;26.48;37.64
59240;BME280;45010;53.640;10.578;2023-10-09T10:17:03;100968.25;;;26.45;37.43
59240;BME280;45010;53.640;10.578;2023-10-09T10:20:06;100967.44;;;26.44;37.50
59240;BME280;45010;53.640;10.578;2023-10-09T10:23:19;100976.63;;;26.49;37.43
59240;BME280;45010;53.640;10.578;2023-10-09T10:26:22;100976.53;;;26.43;37.94
59240;BME280;45010;53.640;10.578;2023-10-09T10:29:26;100984.66;;;26.49;37.43
59240;BME280;45010;53.640;10.578;2023-10-09T10:35:52;100981.38;;;26.46;37.43
59240;BME280;45010;53.640;10.578;2023-10-09T10:39:08;100983.50;;;26.44;37.70
59240;BME280;45010;53.640;10.578;2023-10-09T10:42:19;100981.88;;;26.43;37.76
59240;BME280;45010;53.640;10.578;2023-10-09T10:45:38;100979.44;;;26.42;37.88
59240;BME280;45010;53.640;10.578;2023-10-09T10:48:44;100972.44;;;26.41;37.74
59240;BME280;45010;53.640;10.578;2023-10-09T10:51:50;100973.75;;;26.38;37.80
59240;BME280;45010;53.640;10.578;2023-10-09T10:55:23;100964.81;;;26.32;37.81
59240;BME280;45010;53.640;10.578;2023-10-09T10:58:26;100972.34;;;26.36;38.00
59240;BME280;45010;53.640;10.578;2023-10-09T11:01:35;100959.13;;;26.29;38.03
59240;BME280;45010;53.640;10.578;2023-10-09T11:04:55;100962.38;;;26.31;38.22
59240;BME280;45010;53.640;10.578;2023-10-09T11:07:59;100960.75;;;26.30;38.29
59240;BME280;45010;53.640;10.578;2023-10-09T11:11:11;100963.66;;;26.28;38.54
59240;BME280;45010;53.640;10.578;2023-10-09T11:14:15;100950.28;;;26.16;38.25
59240;BME280;45010;53.640;10.578;2023-10-09T11:17:18;100957.97;;;26.25;38.79
59240;BME280;45010;53.640;10.578;2023-10-09T11:20:25;100957.97;;;26.25;38.33
59240;BME280;45010;53.640;10.578;2023-10-09T11:23:32;100945.53;;;26.18;38.55
59240;BME280;45010;53.640;10.578;2023-10-09T11:26:38;100951.44;;;26.21;38.42
59240;BME280;45010;53.640;10.578;2023-10-09T11:29:48;100942.84;;;26.18;38.49
59240;BME280;45010;53.640;10.578;2023-10-09T11:33:04;100932.28;;;26.12;38.51
59240;BME280;45010;53.640;10.578;2023-10-09T11:36:05;100940.63;;;26.15;38.65
59240;BME280;45010;53.640;10.578;2023-10-09T11:39:27;100934.72;;;26.13;38.31
59240;BME280;45010;53.640;10.578;2023-10-09T11:42:51;100941.13;;;26.12;38.53
59240;BME280;45010;53.640;10.578;2023-10-09T11:46:08;100935.66;;;26.07;38.66
59240;BME280;45010;53.640;10.578;2023-10-09T11:49:11;100940.53;;;26.10;38.87
59240;BME280;45010;53.640;10.578;2023-10-09T11:52:25;100941.00;;;26.07;38.46
59240;BME280;45010;53.640;10.578;2023-10-09T11:55:31;100949.03;;;26.07;38.92
59240;BME280;45010;53.640;10.578;2023-10-09T11:58:33;100943.13;;;26.05;38.83
59240;BME280;45010;53.640;10.578;2023-10-09T12:01:35;100922.25;;;25.90;38.73
59240;BME280;45010;53.640;10.578;2023-10-09T12:04:37;100937.19;;;26.03;38.81
59240;BME280;45010;53.640;10.578;2023-10-09T12:07:45;100939.84;;;26.03;38.63
59240;BME280;45010;53.640;10.578;2023-10-09T12:10:46;100931.28;;;26.01;39.14
59240;BME280;45010;53.640;10.578;2023-10-09T12:13:48;100935.56;;;26.02;39.38
59240;BME280;45010;53.640;10.578;2023-10-09T12:16:49;100928.50;;;25.96;39.40
59240;BME280;45010;53.640;10.578;2023-10-09T12:19:53;100938.22;;;26.02;39.42
59240;BME280;45010;53.640;10.578;2023-10-09T12:23:00;100942.31;;;26.04;39.38
59240;BME280;45010;53.640;10.578;2023-10-09T12:26:02;100931.84;;;26.03;39.40
59240;BME280;45010;53.640;10.578;2023-10-09T12:29:02;100941.00;;;26.07;39.65
59240;BME280;45010;53.640;10.578;2023-10-09T12:32:03;100935.19;;;26.10;39.28
59240;BME280;45010;53.640;10.578;2023-10-09T12:35:10;100879.38;;;25.73;39.42
59240;BME280;45010;53.640;10.578;2023-10-09T12:38:17;100942.50;;;26.15;39.92
59240;BME280;45010;53.640;10.578;2023-10-09T12:41:22;100943.31;;;26.15;39.64
59240;BME280;45010;53.640;10.578;2023-10-09T12:44:26;100941.22;;;26.17;39.55
59240;BME280;45010;53.640;10.578;2023-10-09T12:47:27;100946.09;;;26.21;39.63
59240;BME280;45010;53.640;10.578;2023-10-09T12:50:28;100949.38;;;26.23;39.38
59240;BME280;45010;53.640;10.578;2023-10-09T12:53:28;100932.16;;;26.18;39.28
59240;BME280;45010;53.640;10.578;2023-10-09T12:56:29;100941.44;;;26.28;39.32
59240;BME280;45010;53.640;10.578;2023-10-09T12:59:38;100940.97;;;26.31;39.58
59240;BME280;45010;53.640;10.578;2023-10-09T13:02:39;100936.19;;;26.33;39.61
59240;BME280;45010;53.640;10.578;2023-10-09T13:05:47;100933.06;;;26.36;39.81
59240;BME280;45010;53.640;10.578;2023-10-09T13:08:55;100938.97;;;26.38;39.63
59240;BME280;45010;53.640;10.578;2023-10-09T13:12:00;100923.44;;;26.35;39.83
59240;BME280;45010;53.640;10.578;2023-10-09T13:15:04;100918.16;;;26.40;39.89
59240;BME280;45010;53.640;10.578;2023-10-09T13:18:08;100930.34;;;26.48;39.69
59240;BME280;45010;53.640;10.578;2023-10-09T13:21:09;100931.72;;;26.51;40.47
59240;BME280;45010;53.640;10.578;2023-10-09T13:24:09;100912.81;;;26.40;40.00
59240;BME280;45010;53.640;10.578;2023-10-09T13:27:13;100940.06;;;26.54;39.68
59240;BME280;45010;53.640;10.578;2023-10-09T13:30:18;100900.22;;;26.24;39.60
59240;BME280;45010;53.640;10.578;2023-10-09T13:33:24;100892.19;;;26.24;39.79
59240;BME280;45010;53.640;10.578;2023-10-09T13:36:27;100930.75;;;26.57;39.71
59240;BME280;45010;53.640;10.578;2023-10-09T13:39:31;100927.72;;;26.65;39.72
59240;BME280;45010;53.640;10.578;2023-10-09T13:42:37;100924.53;;;26.68;40.00
59240;BME280;45010;53.640;10.578;2023-10-09T13:45:38;100920.34;;;26.72;39.99
59240;BME280;45010;53.640;10.578;2023-10-09T13:48:42;100926.25;;;26.75;39.92
59240;BME280;45010;53.640;10.578;2023-10-09T13:51:43;100912.56;;;26.71;39.75
59240;BME280;45010;53.640;10.578;2023-10-09T13:54:45;100929.50;;;26.77;39.94
59240;BME280;45010;53.640;10.578;2023-10-09T13:57:49;100927.41;;;26.79;39.57
59240;BME280;45010;53.640;10.578;2023-10-09T14:00:49;100930.09;;;26.79;39.76
59240;BME280;45010;53.640;10.578;2023-10-09T14:03:54;100921.47;;;26.77;40.04
59240;BME280;45010;53.640;10.578;2023-10-09T14:06:55;100921.56;;;26.82;39.76
59240;BME280;45010;53.640;10.578;2023-10-09T14:09:59;100920.50;;;26.83;40.17
59240;BME280;45010;53.640;10.578;2023-10-09T14:13:07;100923.75;;;26.85;39.91
59240;BME280;45010;53.640;10.578;2023-10-09T14:16:12;100916.28;;;26.87;39.89
59240;BME280;45010;53.640;10.578;2023-10-09T14:19:24;100916.63;;;26.91;40.00
59240;BME280;45010;53.640;10.578;2023-10-09T14:22:24;100916.63;;;26.91;39.87
59240;BME280;45010;53.640;10.578;2023-10-09T14:25:24;100919.09;;;26.92;39.65
59240;BME280;45010;53.640;10.578;2023-10-09T14:28:26;100910.00;;;26.93;39.69
59240;BME280;45010;53.640;10.578;2023-10-09T14:31:29;100914.06;;;26.96;40.00
59240;BME280;45010;53.640;10.578;2023-10-09T14:34:29;100916.75;;;26.96;39.88
59240;BME280;45010;53.640;10.578;2023-10-09T14:37:32;100914.88;;;26.96;39.46
59240;BME280;45010;53.640;10.578;2023-10-09T14:40:32;100908.38;;;26.92;39.53
59240;BME280;45010;53.640;10.578;2023-10-09T14:43:33;100913.81;;;26.97;39.90
59240;BME280;45010;53.640;10.578;2023-10-09T14:46:34;100919.19;;;26.97;39.39
59240;BME280;45010;53.640;10.578;2023-10-09T14:49:35;100928.81;;;26.98;39.77
59240;BME280;45010;53.640;10.578;2023-10-09T14:52:38;100931.50;;;26.98;39.77
59240;BME280;45010;53.640;10.578;2023-10-09T14:55:38;100934.75;;;27.01;39.72
59240;BME280;45010;53.640;10.578;2023-10-09T14:58:39;100937.41;;;27.01;39.51
59240;BME280;45010;53.640;10.578;2023-10-09T15:01:39;100927.22;;;26.97;39.56
59240;BME280;45010;53.640;10.578;2023-10-09T15:04:40;100936.94;;;27.04;39.34
59240;BME280;45010;53.640;10.578;2023-10-09T15:07:40;100934.81;;;27.06;39.42
59240;BME280;45010;53.640;10.578;2023-10-09T15:10:48;100923.00;;;27.02;39.44
59240;BME280;45010;53.640;10.578;2023-10-09T15:13:49;100936.44;;;27.07;39.52
59240;BME280;45010;53.640;10.578;2023-10-09T15:16:49;100937.50;;;27.06;39.85
59240;BME280;45010;53.640;10.578;2023-10-09T15:19:50;100932.75;;;27.08;39.40
59240;BME280;45010;53.640;10.578;2023-10-09T15:22:56;100931.09;;;27.07;39.66
59240;BME280;45010;53.640;10.578;2023-10-09T15:25:57;100936.44;;;27.07;39.61
59240;BME280;45010;53.640;10.578;2023-10-09T15:28:59;100939.72;;;27.09;39.91
59240;BME280;45010;53.640;10.578;2023-10-09T15:32:01;100929.00;;;27.09;39.51
59240;BME280;45010;53.640;10.578;2023-10-09T15:35:05;100934.34;;;27.09;39.92
59240;BME280;45010;53.640;10.578;2023-10-09T15:38:06;100942.94;;;27.11;39.86
59240;BME280;45010;53.640;10.578;2023-10-09T15:41:06;100948.28;;;27.11;39.64
59240;BME280;45010;53.640;10.578;2023-10-09T15:44:06;100949.13;;;27.11;39.96
59240;BME280;45010;53.640;10.578;2023-10-09T15:47:07;100942.94;;;27.11;39.64
59240;BME280;45010;53.640;10.578;2023-10-09T15:50:08;100954.81;;;27.15;39.63
59240;BME280;45010;53.640;10.578;2023-10-09T15:53:11;100949.44;;;27.15;40.09
59240;BME280;45010;53.640;10.578;2023-10-09T15:56:13;100956.41;;;27.16;39.95
59240;BME280;45010;53.640;10.578;2023-10-09T15:59:14;100961.78;;;27.16;39.60
59240;BME280;45010;53.640;10.578;2023-10-09T16:02:14;100959.34;;;27.15;39.64